Time;durP1;ratioP1;P1;durP2;ratioP2;P2;SDS_P1;SDS_P2;PMS_P1;PMS_P2;Temp;Humidity;BMP_temperature;BMP_pressure;BME280_temperature;BME280_humidity;BME280_pressure;Samples;Min_cycle;Max_cycle;Signal;HPM_P1;HPM_P2
2021/10/03 00:01:04;;;;;;;3.75;3.33;;;;;;;;;;5053722;28;20109;-58
2021/10/03 00:03:30;;;;;;;4.60;3.35;;;;;;;;;;5020082;28;20021;-58
2021/10/03 00:05:58;;;;;;;5.25;3.33;;;;;;;;;;5053416;28;20025;-58
2021/10/03 00:08:25;;;;;;;6.55;3.92;;;;;;;;;;5053260;28;20537;-58
2021/10/03 00:10:53;;;;;;;5.03;3.97;;;;;;;;;;5053447;28;20045;-58
2021/10/03 00:13:19;;;;;;;4.15;2.85;;;;;;;;;;5054008;28;20328;-58
2021/10/03 00:15:45;;;;;;;4.60;2.85;;;;;;;;;;5053388;28;20064;-58
2021/10/03 00:18:13;;;;;;;6.85;4.10;;;;;;;;;;5053383;28;20033;-58
2021/10/03 00:20:40;;;;;;;4.65;3.28;;;;;;;;;;5053384;28;20056;-58
2021/10/03 00:23:06;;;;;;;6.50;3.67;;;;;;;;;;5054158;28;20394;-58
2021/10/03 00:25:32;;;;;;;5.20;3.70;;;;;;;;;;5053297;28;20037;-58
2021/10/03 00:28:01;;;;;;;4.40;3.13;;;;;;;;;;5053339;28;20111;-58
2021/10/03 00:30:27;;;;;;;5.07;3.72;;;;;;;;;;5053605;28;20078;-58
2021/10/03 00:32:53;;;;;;;6.10;3.88;;;;;;;;;;5057819;28;20055;-58
2021/10/03 00:35:20;;;;;;;4.72;3.75;;;;;;;;;;5057248;28;20028;-58
2021/10/03 00:37:46;;;;;;;4.50;3.15;;;;;;;;;;5057683;28;20028;-58
2021/10/03 00:40:16;;;;;;;6.63;3.45;;;;;;;;;;5056955;28;20452;-58
2021/10/03 00:42:42;;;;;;;4.43;3.38;;;;;;;;;;5057441;28;20028;-58
2021/10/03 00:45:09;;;;;;;5.55;3.80;;;;;;;;;;5057296;28;20033;-58
2021/10/03 00:47:35;;;;;;;3.97;2.72;;;;;;;;;;5057779;28;20347;-58
2021/10/03 00:50:01;;;;;;;5.05;3.60;;;;;;;;;;5056892;28;20033;-58
2021/10/03 00:52:27;;;;;;;3.58;3.20;;;;;;;;;;5039822;28;20112;-58
2021/10/03 00:54:53;;;;;;;5.50;3.35;;;;;;;;;;5057626;28;20360;-58
2021/10/03 00:57:19;;;;;;;4.32;3.13;;;;;;;;;;5057109;28;20031;-58
2021/10/03 00:59:46;;;;;;;3.05;2.63;;;;;;;;;;5057480;28;20430;-58
2021/10/03 01:02:12;;;;;;;3.38;2.85;;;;;;;;;;5039113;28;20128;-58
2021/10/03 01:04:38;;;;;;;4.53;2.85;;;;;;;;;;5056560;28;20128;-58
2021/10/03 01:07:04;;;;;;;3.60;2.72;;;;;;;;;;5022370;28;20021;-58
2021/10/03 01:09:30;;;;;;;4.72;3.28;;;;;;;;;;5056610;28;20459;-58
2021/10/03 01:11:57;;;;;;;5.72;3.92;;;;;;;;;;5056649;28;20048;-58
2021/10/03 01:14:23;;;;;;;7.32;4.13;;;;;;;;;;5057041;28;20029;-58
2021/10/03 01:16:49;;;;;;;3.78;2.97;;;;;;;;;;5056965;28;20021;-58
2021/10/03 01:19:15;;;;;;;5.78;4.03;;;;;;;;;;5056161;28;20028;-58
2021/10/03 01:21:42;;;;;;;5.03;2.95;;;;;;;;;;5056334;28;20370;-58
2021/10/03 01:24:08;;;;;;;3.85;2.72;;;;;;;;;;5056565;28;20025;-58
2021/10/03 01:26:34;;;;;;;4.82;3.50;;;;;;;;;;5038085;28;20040;-58
2021/10/03 01:29:00;;;;;;;4.88;3.58;;;;;;;;;;5038299;28;20029;-59
2021/10/03 01:31:28;;;;;;;4.25;3.30;;;;;;;;;;5056119;28;20071;-58
2021/10/03 01:33:55;;;;;;;5.43;3.10;;;;;;;;;;5056653;28;20025;-58
2021/10/03 01:36:24;;;;;;;4.47;3.25;;;;;;;;;;5056027;28;20068;-58
2021/10/03 01:38:51;;;;;;;5.55;3.50;;;;;;;;;;5038141;28;20067;-58
2021/10/03 01:41:17;;;;;;;5.43;3.40;;;;;;;;;;5055772;28;20112;-59
2021/10/03 01:43:43;;;;;;;4.88;3.95;;;;;;;;;;5038609;28;20032;-58
2021/10/03 01:46:09;;;;;;;4.32;3.33;;;;;;;;;;5037930;28;20379;-59
2021/10/03 01:48:36;;;;;;;4.25;3.47;;;;;;;;;;5054817;28;20030;-58
2021/10/03 01:51:07;;;;;;;5.03;3.35;;;;;;;;;;5038479;28;20048;-58
2021/10/03 01:53:37;;;;;;;3.88;2.80;;;;;;;;;;5055852;28;20020;-59
2021/10/03 01:56:05;;;;;;;4.53;3.08;;;;;;;;;;5055721;28;20028;-59
2021/10/03 01:58:33;;;;;;;3.88;3.05;;;;;;;;;;5054927;28;20033;-59
2021/10/03 02:01:01;;;;;;;7.22;3.25;;;;;;;;;;5056412;28;20104;-59
2021/10/03 02:03:30;;;;;;;4.75;3.15;;;;;;;;;;5038192;28;20029;-59
2021/10/03 02:05:56;;;;;;;4.72;3.67;;;;;;;;;;5055078;28;20422;-59
2021/10/03 02:08:22;;;;;;;4.65;3.13;;;;;;;;;;5037843;28;20025;-59
2021/10/03 02:10:49;;;;;;;4.45;2.97;;;;;;;;;;5055386;28;20055;-58
2021/10/03 02:13:16;;;;;;;5.32;3.45;;;;;;;;;;5037664;28;20079;-59
2021/10/03 02:15:43;;;;;;;4.45;3.05;;;;;;;;;;5055306;28;20028;-59
2021/10/03 02:18:11;;;;;;;4.82;3.72;;;;;;;;;;5037684;28;20506;-59
2021/10/03 02:20:40;;;;;;;4.68;3.05;;;;;;;;;;5055165;28;20467;-59
2021/10/03 02:23:07;;;;;;;4.85;3.03;;;;;;;;;;5054891;28;20071;-59
2021/10/03 02:25:34;;;;;;;3.80;2.97;;;;;;;;;;5055335;28;20103;-59
2021/10/03 02:28:02;;;;;;;3.38;2.78;;;;;;;;;;5037272;28;20386;-58
2021/10/03 02:30:28;;;;;;;4.22;3.20;;;;;;;;;;5055008;28;20025;-58
2021/10/03 02:32:54;;;;;;;4.38;3.75;;;;;;;;;;5055811;28;20029;-59
2021/10/03 02:35:20;;;;;;;3.67;2.78;;;;;;;;;;5036771;28;20029;-58
2021/10/03 02:37:46;;;;;;;5.47;3.63;;;;;;;;;;5037704;28;20021;-58
2021/10/03 02:40:14;;;;;;;3.83;3.40;;;;;;;;;;5055303;28;20029;-58
2021/10/03 02:42:40;;;;;;;5.68;3.35;;;;;;;;;;5037606;28;20036;-59
2021/10/03 02:45:08;;;;;;;4.95;3.53;;;;;;;;;;5036830;28;20123;-59
2021/10/03 02:47:34;;;;;;;9.00;3.28;;;;;;;;;;5036877;28;20503;-59
2021/10/03 02:50:00;;;;;;;12.07;3.60;;;;;;;;;;5020439;28;20057;-59
2021/10/03 02:52:26;;;;;;;5.18;3.97;;;;;;;;;;5055201;28;20370;-59
2021/10/03 02:54:52;;;;;;;5.22;2.88;;;;;;;;;;5054090;28;20060;-59
2021/10/03 02:57:19;;;;;;;5.07;3.60;;;;;;;;;;5054534;28;20471;-58
2021/10/03 02:59:45;;;;;;;4.80;2.88;;;;;;;;;;5054716;28;20025;-58
2021/10/03 03:02:11;;;;;;;4.22;3.40;;;;;;;;;;5054456;28;20112;-58
2021/10/03 03:04:37;;;;;;;3.80;2.75;;;;;;;;;;5053280;28;20051;-58
2021/10/03 03:07:03;;;;;;;5.63;3.20;;;;;;;;;;5054843;28;20025;-58
2021/10/03 03:09:29;;;;;;;7.28;3.28;;;;;;;;;;5054266;28;20025;-58
2021/10/03 03:11:58;;;;;;;5.05;3.70;;;;;;;;;;5036190;28;20131;-58
2021/10/03 03:14:24;;;;;;;4.85;3.20;;;;;;;;;;5053919;28;20037;-58
2021/10/03 03:16:51;;;;;;;4.40;2.75;;;;;;;;;;5053849;28;20028;-58
2021/10/03 03:19:18;;;;;;;4.50;3.53;;;;;;;;;;5054109;28;20025;-58
2021/10/03 03:21:44;;;;;;;4.95;3.53;;;;;;;;;;5054384;28;20025;-58
2021/10/03 03:24:10;;;;;;;5.18;3.88;;;;;;;;;;5054810;28;20060;-58
2021/10/03 03:26:36;;;;;;;4.63;2.63;;;;;;;;;;5054333;28;20082;-58
2021/10/03 03:29:06;;;;;;;5.97;3.30;;;;;;;;;;5053916;28;20020;-58
2021/10/03 03:31:32;;;;;;;4.03;3.00;;;;;;;;;;5036023;28;20029;-58
2021/10/03 03:33:59;;;;;;;7.55;3.47;;;;;;;;;;5054270;28;20055;-58
2021/10/03 03:36:27;;;;;;;6.00;3.20;;;;;;;;;;5054392;28;20079;-58
2021/10/03 03:38:53;;;;;;;4.90;3.00;;;;;;;;;;5054021;28;20474;-58
2021/10/03 03:41:20;;;;;;;3.58;2.72;;;;;;;;;;5053638;28;20055;-58
2021/10/03 03:43:45;;;;;;;5.45;3.10;;;;;;;;;;5053744;28;20489;-58
2021/10/03 03:46:12;;;;;;;6.57;2.67;;;;;;;;;;5053626;28;20068;-58
2021/10/03 03:48:38;;;;;;;3.35;2.75;;;;;;;;;;5036628;28;20029;-58
2021/10/03 03:51:06;;;;;;;3.78;2.60;;;;;;;;;;5036028;28;20028;-58
2021/10/03 03:53:33;;;;;;;3.42;2.65;;;;;;;;;;5053990;28;20079;-58
2021/10/03 03:55:59;;;;;;;4.65;2.90;;;;;;;;;;5036602;28;20443;-58
2021/10/03 03:58:25;;;;;;;2.75;2.03;;;;;;;;;;5053564;28;20028;-58
2021/10/03 04:00:51;;;;;;;3.45;2.58;;;;;;;;;;5054001;28;20028;-58
2021/10/03 04:03:17;;;;;;;3.67;2.85;;;;;;;;;;5053838;28;20375;-59
2021/10/03 04:05:43;;;;;;;3.88;2.40;;;;;;;;;;5036660;28;20039;-58
2021/10/03 04:08:09;;;;;;;5.57;2.70;;;;;;;;;;5057756;28;20022;-60
2021/10/03 04:10:35;;;;;;;4.88;2.22;;;;;;;;;;5057547;28;20071;-59
2021/10/03 04:13:01;;;;;;;3.03;2.30;;;;;;;;;;5058522;28;20071;-58
2021/10/03 04:15:27;;;;;;;4.22;2.30;;;;;;;;;;5057332;28;20112;-58
2021/10/03 04:17:53;;;;;;;3.08;1.98;;;;;;;;;;5057781;28;20108;-58
2021/10/03 04:20:19;;;;;;;4.53;2.90;;;;;;;;;;5039647;28;20025;-58
2021/10/03 04:22:48;;;;;;;5.07;2.72;;;;;;;;;;5040242;28;20025;-58
2021/10/03 04:25:14;;;;;;;4.20;2.40;;;;;;;;;;5057387;28;20521;-58
2021/10/03 04:27:40;;;;;;;2.60;2.05;;;;;;;;;;5057411;28;20029;-58
2021/10/03 04:30:09;;;;;;;3.00;2.00;;;;;;;;;;5040052;28;20409;-59
2021/10/03 04:32:35;;;;;;;3.70;2.30;;;;;;;;;;5057094;28;20467;-58
2021/10/03 04:35:01;;;;;;;4.28;2.53;;;;;;;;;;5057295;28;20024;-58
2021/10/03 04:37:30;;;;;;;4.50;2.15;;;;;;;;;;5039592;28;20481;-58
2021/10/03 04:39:56;;;;;;;3.80;2.38;;;;;;;;;;5056871;28;20017;-58
2021/10/03 04:42:22;;;;;;;6.00;2.10;;;;;;;;;;5057789;28;20100;-58
2021/10/03 04:44:48;;;;;;;2.45;1.55;;;;;;;;;;5057526;28;20032;-58
2021/10/03 04:47:14;;;;;;;4.07;1.73;;;;;;;;;;5057068;28;20373;-59
2021/10/03 04:49:40;;;;;;;3.42;2.40;;;;;;;;;;5057330;28;20024;-58
2021/10/03 04:52:09;;;;;;;3.08;2.38;;;;;;;;;;5056959;28;20024;-58
2021/10/03 04:54:35;;;;;;;3.47;2.20;;;;;;;;;;5056631;28;20025;-58
2021/10/03 04:57:01;;;;;;;4.45;2.25;;;;;;;;;;5039508;28;20027;-59
2021/10/03 04:59:28;;;;;;;2.70;2.00;;;;;;;;;;5057039;28;20075;-59
2021/10/03 05:01:58;;;;;;;3.15;1.98;;;;;;;;;;5057256;28;20478;-58
2021/10/03 05:04:24;;;;;;;2.88;1.88;;;;;;;;;;5057028;28;20033;-58
2021/10/03 05:06:50;;;;;;;4.72;2.30;;;;;;;;;;5056663;28;20074;-58
2021/10/03 05:09:16;;;;;;;3.50;2.13;;;;;;;;;;5056618;28;20459;-58
2021/10/03 05:11:42;;;;;;;3.45;1.95;;;;;;;;;;5056792;28;20056;-58
2021/10/03 05:14:08;;;;;;;3.63;2.22;;;;;;;;;;5038925;28;20021;-59
2021/10/03 05:16:35;;;;;;;2.63;1.50;;;;;;;;;;5055840;28;20036;-59
2021/10/03 05:19:01;;;;;;;3.72;1.88;;;;;;;;;;5056434;28;20025;-58
2021/10/03 05:21:30;;;;;;;2.92;1.58;;;;;;;;;;5056120;28;20104;-58
2021/10/03 05:23:56;;;;;;;2.87;2.03;;;;;;;;;;5056425;28;20025;-58
2021/10/03 05:26:23;;;;;;;4.50;2.65;;;;;;;;;;5056353;28;20090;-58
2021/10/03 05:28:52;;;;;;;6.50;2.00;;;;;;;;;;5056229;28;20032;-58
2021/10/03 05:31:19;;;;;;;2.47;1.73;;;;;;;;;;5038197;28;20466;-58
2021/10/03 05:33:45;;;;;;;2.47;1.70;;;;;;;;;;5038607;28;20024;-58
2021/10/03 05:36:14;;;;;;;3.67;2.25;;;;;;;;;;5038515;28;20091;-58
2021/10/03 05:38:40;;;;;;;2.40;1.75;;;;;;;;;;5038765;28;20047;-58
2021/10/03 05:41:06;;;;;;;2.95;1.80;;;;;;;;;;5038510;28;20021;-58
2021/10/03 05:43:34;;;;;;;2.63;1.80;;;;;;;;;;5056054;28;20028;-58
2021/10/03 05:46:00;;;;;;;2.20;1.33;;;;;;;;;;5055802;28;20055;-58
2021/10/03 05:48:26;;;;;;;6.20;2.42;;;;;;;;;;5055619;28;20495;-58
2021/10/03 05:50:52;;;;;;;2.85;1.85;;;;;;;;;;5055836;28;20116;-58
2021/10/03 05:53:18;;;;;;;2.50;1.70;;;;;;;;;;5037981;28;20492;-58
2021/10/03 05:55:47;;;;;;;2.58;1.73;;;;;;;;;;5055465;28;20371;-58
2021/10/03 05:58:13;;;;;;;3.25;2.10;;;;;;;;;;5037839;28;20257;-58
2021/10/03 06:00:39;;;;;;;2.85;1.73;;;;;;;;;;5037663;28;20032;-58
2021/10/03 06:03:06;;;;;;;4.90;1.98;;;;;;;;;;5038076;28;20021;-58
2021/10/03 06:05:32;;;;;;;3.97;2.55;;;;;;;;;;5037887;28;20033;-58
2021/10/03 06:08:00;;;;;;;2.88;1.75;;;;;;;;;;5055494;28;20047;-58
2021/10/03 06:10:26;;;;;;;4.95;3.17;;;;;;;;;;5037387;28;20056;-58
2021/10/03 06:12:52;;;;;;;3.42;1.90;;;;;;;;;;5056035;28;20018;-58
2021/10/03 06:15:21;;;;;;;2.83;1.88;;;;;;;;;;5055408;28;20035;-58
2021/10/03 06:17:47;;;;;;;4.05;2.35;;;;;;;;;;5054516;28;20116;-58
2021/10/03 06:20:13;;;;;;;2.80;2.15;;;;;;;;;;5055566;28;20056;-58
2021/10/03 06:22:44;;;;;;;4.22;2.60;;;;;;;;;;5055801;28;20424;-58
2021/10/03 06:25:10;;;;;;;2.85;2.22;;;;;;;;;;5038108;28;20043;-57
2021/10/03 06:27:36;;;;;;;3.40;1.98;;;;;;;;;;5054960;28;20031;-58
2021/10/03 06:30:05;;;;;;;4.88;2.50;;;;;;;;;;5036856;28;20526;-58
2021/10/03 06:32:31;;;;;;;3.78;2.03;;;;;;;;;;5055625;28;20036;-58
2021/10/03 06:34:57;;;;;;;4.07;1.90;;;;;;;;;;5037402;28;20029;-58
2021/10/03 06:37:23;;;;;;;3.45;2.42;;;;;;;;;;5054584;28;20378;-58
2021/10/03 06:39:52;;;;;;;2.45;1.45;;;;;;;;;;5054959;28;20029;-58
2021/10/03 06:42:18;;;;;;;3.78;2.28;;;;;;;;;;5037022;28;20059;-58
2021/10/03 06:44:44;;;;;;;4.50;2.70;;;;;;;;;;5037013;28;20068;-58
2021/10/03 06:47:11;;;;;;;3.47;1.83;;;;;;;;;;5037804;28;20021;-58
2021/10/03 06:49:38;;;;;;;5.50;2.03;;;;;;;;;;5037688;28;20022;-58
2021/10/03 06:52:04;;;;;;;3.45;2.30;;;;;;;;;;5036019;28;20041;-58
2021/10/03 06:54:30;;;;;;;4.53;3.00;;;;;;;;;;5036780;28;20120;-58
2021/10/03 06:56:56;;;;;;;2.70;1.98;;;;;;;;;;5054552;28;20045;-58
2021/10/03 06:59:24;;;;;;;3.67;2.08;;;;;;;;;;5036848;28;20067;-58
2021/10/03 07:01:51;;;;;;;3.10;1.95;;;;;;;;;;5054369;28;20025;-58
2021/10/03 07:04:17;;;;;;;4.07;2.88;;;;;;;;;;5054483;28;20029;-58
2021/10/03 07:06:43;;;;;;;3.30;2.22;;;;;;;;;;5054364;28;20023;-58
2021/10/03 07:09:09;;;;;;;3.88;2.30;;;;;;;;;;5054670;28;20017;-58
2021/10/03 07:11:35;;;;;;;3.28;2.15;;;;;;;;;;5053944;28;20053;-58
2021/10/03 07:14:01;;;;;;;3.25;2.05;;;;;;;;;;5036407;28;20375;-58
2021/10/03 07:16:27;;;;;;;2.88;2.03;;;;;;;;;;5053792;28;20025;-58
2021/10/03 07:18:54;;;;;;;4.00;2.00;;;;;;;;;;5036430;28;20061;-58
2021/10/03 07:21:25;;;;;;;3.42;2.10;;;;;;;;;;5054123;28;20082;-58
2021/10/03 07:23:51;;;;;;;2.67;2.15;;;;;;;;;;5054719;28;20021;-58
2021/10/03 07:26:17;;;;;;;4.07;2.63;;;;;;;;;;5053699;28;20102;-58
2021/10/03 07:28:43;;;;;;;3.05;1.90;;;;;;;;;;5036550;28;20059;-58
2021/10/03 07:31:10;;;;;;;4.20;2.17;;;;;;;;;;5036036;28;20029;-58
2021/10/03 07:33:36;;;;;;;4.07;2.38;;;;;;;;;;5053906;28;20378;-58
2021/10/03 07:36:02;;;;;;;3.45;1.92;;;;;;;;;;5053859;28;20025;-58
2021/10/03 07:38:28;;;;;;;2.85;1.88;;;;;;;;;;5053819;28;20078;-58
2021/10/03 07:40:54;;;;;;;4.35;2.30;;;;;;;;;;5053492;28;20025;-58
2021/10/03 07:43:20;;;;;;;6.97;2.58;;;;;;;;;;5034979;28;20060;-58
2021/10/03 07:45:46;;;;;;;3.08;2.03;;;;;;;;;;5035065;28;20483;-58
2021/10/03 07:48:12;;;;;;;4.00;2.22;;;;;;;;;;5053977;28;20375;-58
2021/10/03 07:50:38;;;;;;;3.08;2.10;;;;;;;;;;5053627;28;20025;-59
2021/10/03 07:53:04;;;;;;;2.53;1.85;;;;;;;;;;5036115;28;20118;-58
2021/10/03 07:55:30;;;;;;;2.50;1.75;;;;;;;;;;5053597;28;20072;-58
2021/10/03 07:57:59;;;;;;;2.75;1.80;;;;;;;;;;5054162;28;20044;-58
2021/10/03 08:00:25;;;;;;;3.35;2.28;;;;;;;;;;5053614;28;20375;-58
2021/10/03 08:02:54;;;;;;;4.38;2.08;;;;;;;;;;5053973;28;20166;-59
2021/10/03 08:05:22;;;;;;;4.05;3.45;;;;;;;;;;5053250;28;20025;-58
2021/10/03 08:07:48;;;;;;;4.22;2.90;;;;;;;;;;5019095;28;20025;-59
2021/10/03 08:10:15;;;;;;;3.05;2.70;;;;;;;;;;5053473;28;20028;-59
2021/10/03 08:12:41;;;;;;;4.32;2.75;;;;;;;;;;5054208;28;20047;-59
2021/10/03 08:15:08;;;;;;;3.72;2.88;;;;;;;;;;5053237;28;20457;-59
2021/10/03 08:17:33;;;;;;;4.53;2.55;;;;;;;;;;5035868;28;20029;-59
2021/10/03 08:19:59;;;;;;;3.25;2.03;;;;;;;;;;5053065;28;20108;-59
2021/10/03 08:22:25;;;;;;;2.70;1.70;;;;;;;;;;5054237;28;20029;-59
2021/10/03 08:24:52;;;;;;;3.17;2.20;;;;;;;;;;5053261;28;20059;-59
2021/10/03 08:27:18;;;;;;;3.72;1.98;;;;;;;;;;5053418;28;20031;-58
2021/10/03 08:29:56;;;;;;;3.30;2.08;;;;;;;;;;5053620;28;20021;-59
2021/10/03 08:32:22;;;;;;;7.43;1.63;;;;;;;;;;5020124;28;20045;-58
2021/10/03 08:34:51;;;;;;;3.67;2.40;;;;;;;;;;5053345;28;20112;-58
2021/10/03 08:37:17;;;;;;;3.67;2.13;;;;;;;;;;5035722;28;20398;-58
2021/10/03 08:39:44;;;;;;;2.25;1.50;;;;;;;;;;5054158;28;20040;-58
2021/10/03 08:42:12;;;;;;;2.00;1.50;;;;;;;;;;5035474;28;20021;-58
2021/10/03 08:44:38;;;;;;;3.05;1.60;;;;;;;;;;5035290;28;20033;-59
2021/10/03 08:47:06;;;;;;;2.25;1.65;;;;;;;;;;5053251;28;20026;-58
2021/10/03 08:49:32;;;;;;;2.90;1.98;;;;;;;;;;5053140;28;20150;-58
2021/10/03 08:51:58;;;;;;;3.10;2.08;;;;;;;;;;5036540;28;20071;-59
2021/10/03 08:54:24;;;;;;;3.60;2.00;;;;;;;;;;5056679;28;20103;-59
2021/10/03 08:56:50;;;;;;;3.90;1.65;;;;;;;;;;5057577;28;20029;-59
2021/10/03 08:59:16;;;;;;;3.15;1.98;;;;;;;;;;5056499;28;20059;-59
2021/10/03 09:01:52;;;;;;;5.40;2.00;;;;;;;;;;5056906;28;20056;-59
2021/10/03 09:04:27;;;;;;;3.80;1.98;;;;;;;;;;5056602;28;20048;-59
2021/10/03 09:07:07;;;;;;;4.82;2.88;;;;;;;;;;5057232;28;20084;-59
2021/10/03 09:09:52;;;;;;;3.03;1.88;;;;;;;;;;5039087;28;20456;-60
2021/10/03 09:12:21;;;;;;;5.38;2.20;;;;;;;;;;5057078;28;20112;-59
2021/10/03 09:14:47;;;;;;;4.40;2.70;;;;;;;;;;5056625;28;20025;-59
2021/10/03 09:17:17;;;;;;;3.97;2.10;;;;;;;;;;5056518;28;20063;-59
2021/10/03 09:20:03;;;;;;;3.17;1.58;;;;;;;;;;5057004;28;20028;-59
2021/10/03 09:22:29;;;;;;;2.65;1.77;;;;;;;;;;5056867;28;20029;-59
2021/10/03 09:24:59;;;;;;;2.40;1.77;;;;;;;;;;5056234;28;20096;-59
2021/10/03 09:27:45;;;;;;;2.40;1.75;;;;;;;;;;5056303;28;20025;-59
2021/10/03 09:30:12;;;;;;;8.23;2.00;;;;;;;;;;5056727;28;20025;-59
2021/10/03 09:32:38;;;;;;;2.80;1.52;;;;;;;;;;5056214;28;20029;-59
2021/10/03 09:35:04;;;;;;;5.57;2.05;;;;;;;;;;5038113;28;20029;-59
2021/10/03 09:37:32;;;;;;;2.92;1.83;;;;;;;;;;5038375;28;20025;-59
2021/10/03 09:40:03;;;;;;;2.08;1.45;;;;;;;;;;5038020;28;20021;-59
2021/10/03 09:42:29;;;;;;;2.67;1.60;;;;;;;;;;5056309;28;20055;-59
2021/10/03 09:45:04;;;;;;;2.47;1.48;;;;;;;;;;5055791;28;20060;-59
2021/10/03 09:47:32;;;;;;;3.30;1.80;;;;;;;;;;5056132;28;20035;-59
2021/10/03 09:49:58;;;;;;;2.85;1.65;;;;;;;;;;5055585;28;20074;-59
2021/10/03 09:52:24;;;;;;;5.95;1.98;;;;;;;;;;5056067;28;20466;-59
2021/10/03 09:54:55;;;;;;;3.00;2.00;;;;;;;;;;5055382;28;20025;-59
2021/10/03 09:57:21;;;;;;;2.47;1.40;;;;;;;;;;5038237;28;20383;-59
2021/10/03 09:59:47;;;;;;;2.80;2.00;;;;;;;;;;5056020;28;20040;-59
2021/10/03 10:02:13;;;;;;;2.17;1.48;;;;;;;;;;5055942;28;20025;-59
2021/10/03 10:04:39;;;;;;;3.17;1.98;;;;;;;;;;5054203;28;20029;-60
2021/10/03 10:07:05;;;;;;;3.15;1.63;;;;;;;;;;5055522;28;20029;-59
2021/10/03 10:09:32;;;;;;;2.70;1.55;;;;;;;;;;5037660;28;20459;-59
2021/10/03 10:12:04;;;;;;;3.08;1.98;;;;;;;;;;5055497;28;20087;-59
2021/10/03 10:14:31;;;;;;;3.33;1.75;;;;;;;;;;5056039;28;20406;-59
2021/10/03 10:17:03;;;;;;;3.58;1.38;;;;;;;;;;5055761;28;20183;-59
2021/10/03 10:19:34;;;;;;;2.70;1.65;;;;;;;;;;5055011;28;20455;-59
2021/10/03 10:22:12;;;;;;;2.22;1.48;;;;;;;;;;5037407;28;20029;-59
2021/10/03 10:24:41;;;;;;;7.65;2.78;;;;;;;;;;5037313;28;20024;-59
2021/10/03 10:27:07;;;;;;;2.92;1.77;;;;;;;;;;5055222;28;20028;-59
2021/10/03 10:30:02;;;;;;;2.65;1.58;;;;;;;;;;5037227;28;20078;-59
2021/10/03 10:32:51;;;;;;;2.25;1.73;;;;;;;;;;5033572;28;20035;-59
2021/10/03 10:35:35;;;;;;;2.72;1.73;;;;;;;;;;5036372;28;20029;-59
2021/10/03 10:38:04;;;;;;;4.25;1.73;;;;;;;;;;5055188;28;20029;-59
2021/10/03 10:40:32;;;;;;;2.85;1.80;;;;;;;;;;5037292;28;20113;-59
2021/10/03 10:43:04;;;;;;;3.65;2.38;;;;;;;;;;5055315;28;20025;-59
2021/10/03 10:45:30;;;;;;;3.72;2.38;;;;;;;;;;5036883;28;20098;-59
2021/10/03 10:48:11;;;;;;;3.80;2.20;;;;;;;;;;5054780;28;20087;-59
2021/10/03 10:50:50;;;;;;;2.75;1.70;;;;;;;;;;5054613;28;20013;-59
2021/10/03 10:53:23;;;;;;;2.95;1.90;;;;;;;;;;5054573;28;20041;-59
2021/10/03 10:56:03;;;;;;;3.70;2.00;;;;;;;;;;5054194;28;20505;-59
2021/10/03 10:58:30;;;;;;;3.50;2.53;;;;;;;;;;5054662;28;20100;-59
2021/10/03 11:01:01;;;;;;;2.75;1.83;;;;;;;;;;5036593;28;20098;-59
2021/10/03 11:03:42;;;;;;;2.35;1.50;;;;;;;;;;5054635;28;20025;-59
2021/10/03 11:06:20;;;;;;;2.97;1.88;;;;;;;;;;5036456;28;20112;-59
2021/10/03 11:09:01;;;;;;;2.97;2.10;;;;;;;;;;5054180;28;20112;-59
2021/10/03 11:11:28;;;;;;;4.32;2.13;;;;;;;;;;5054354;28;20052;-60
2021/10/03 11:13:59;;;;;;;2.40;1.70;;;;;;;;;;5020037;28;20033;-59
2021/10/03 11:16:34;;;;;;;3.20;1.92;;;;;;;;;;5054062;28;20032;-59
2021/10/03 11:19:14;;;;;;;2.53;1.88;;;;;;;;;;5036444;28;20021;-59
2021/10/03 11:21:45;;;;;;;4.00;2.33;;;;;;;;;;5054826;28;20451;-59
2021/10/03 11:24:22;;;;;;;3.38;2.15;;;;;;;;;;5054197;28;20032;-59
2021/10/03 11:26:49;;;;;;;3.40;2.40;;;;;;;;;;5054128;28;20029;-59
2021/10/03 11:29:16;;;;;;;2.70;1.80;;;;;;;;;;5053771;28;20024;-59
2021/10/03 11:31:48;;;;;;;2.67;1.85;;;;;;;;;;5036219;28;20363;-59
2021/10/03 11:34:33;;;;;;;4.07;2.22;;;;;;;;;;5036482;28;20049;-59
2021/10/03 11:37:01;;;;;;;3.13;1.77;;;;;;;;;;5035404;28;20063;-59
2021/10/03 11:39:33;;;;;;;3.13;2.30;;;;;;;;;;5053443;28;20051;-59
2021/10/03 11:41:59;;;;;;;2.90;1.75;;;;;;;;;;5053936;28;20033;-59
2021/10/03 11:44:25;;;;;;;2.08;1.35;;;;;;;;;;5053652;28;20021;-59
2021/10/03 11:47:07;;;;;;;2.45;1.48;;;;;;;;;;5053788;28;20383;-59
2021/10/03 11:49:38;;;;;;;4.43;1.67;;;;;;;;;;5054316;28;20025;-59
2021/10/03 11:52:04;;;;;;;;;;;;;;;;;;5054029;28;20029;-59
2021/10/03 11:54:48;;;;;;;3.50;1.80;;;;;;;;;;5053963;28;19911;-59
2021/10/03 11:57:28;;;;;;;3.83;2.30;;;;;;;;;;5053480;28;20021;-59
2021/10/03 12:00:12;;;;;;;4.32;2.75;;;;;;;;;;5054233;28;20467;-59
2021/10/03 12:02:40;;;;;;;2.88;1.77;;;;;;;;;;5053523;28;20013;-59
2021/10/03 12:05:06;;;;;;;4.00;2.22;;;;;;;;;;5053734;28;20051;-59
2021/10/03 12:07:33;;;;;;;2.65;1.90;;;;;;;;;;5053973;28;20040;-59
2021/10/03 12:10:07;;;;;;;4.65;2.47;;;;;;;;;;5053423;28;20055;-59
2021/10/03 12:12:45;;;;;;;4.57;2.78;;;;;;;;;;5054660;28;20468;-59
2021/10/03 12:15:31;;;;;;;3.65;2.13;;;;;;;;;;5052955;28;20479;-59
2021/10/03 12:18:03;;;;;;;3.92;2.15;;;;;;;;;;5053784;28;20029;-59
2021/10/03 12:20:48;;;;;;;3.88;2.20;;;;;;;;;;5053519;28;20444;-59
2021/10/03 12:23:15;;;;;;;2.55;1.80;;;;;;;;;;5053457;28;20138;-59
2021/10/03 12:25:42;;;;;;;2.13;1.40;;;;;;;;;;5053787;28;20112;-59
2021/10/03 12:28:08;;;;;;;2.22;1.38;;;;;;;;;;5056421;28;20029;-59
2021/10/03 12:31:03;;;;;;;3.60;1.95;;;;;;;;;;5057556;28;20060;-59
2021/10/03 12:33:36;;;;;;;2.50;1.60;;;;;;;;;;5025683;28;20049;-59
2021/10/03 12:36:05;;;;;;;3.13;1.33;;;;;;;;;;5040151;28;20021;-59
2021/10/03 12:38:31;;;;;;;3.65;2.05;;;;;;;;;;5057150;28;20063;-59
2021/10/03 12:40:58;;;;;;;4.68;1.65;;;;;;;;;;5057025;28;20390;-59
2021/10/03 12:43:25;;;;;;;3.85;1.95;;;;;;;;;;5057454;28;20021;-59
2021/10/03 12:45:51;;;;;;;3.10;2.10;;;;;;;;;;5039603;28;20028;-59
2021/10/03 12:48:17;;;;;;;2.15;1.45;;;;;;;;;;5057562;28;20083;-59
2021/10/03 12:50:45;;;;;;;3.13;2.05;;;;;;;;;;5057499;28;20029;-59
2021/10/03 12:53:11;;;;;;;2.83;1.70;;;;;;;;;;5057504;28;20032;-59
2021/10/03 12:55:37;;;;;;;4.10;1.90;;;;;;;;;;5057441;28;20024;-59
2021/10/03 12:58:06;;;;;;;3.20;1.60;;;;;;;;;;5057080;28;20104;-59
2021/10/03 13:00:32;;;;;;;4.05;1.92;;;;;;;;;;5056693;28;20025;-59
2021/10/03 13:02:58;;;;;;;3.88;1.90;;;;;;;;;;5056415;28;20021;-59
2021/10/03 13:05:24;;;;;;;7.00;1.70;;;;;;;;;;5038880;28;20029;-59
2021/10/03 13:07:51;;;;;;;3.28;1.67;;;;;;;;;;5056572;28;20028;-59
2021/10/03 13:10:16;;;;;;;5.53;2.05;;;;;;;;;;5056411;28;20032;-59
2021/10/03 13:12:42;;;;;;;3.65;1.85;;;;;;;;;;5038378;28;20049;-59
2021/10/03 13:15:09;;;;;;;3.42;2.20;;;;;;;;;;5056389;28;20421;-59
2021/10/03 13:17:35;;;;;;;4.20;1.58;;;;;;;;;;5037614;28;20360;-60
2021/10/03 13:20:02;;;;;;;3.60;2.03;;;;;;;;;;5056387;28;20021;-59
2021/10/03 13:22:28;;;;;;;3.42;2.03;;;;;;;;;;5056340;28;20430;-59
2021/10/03 13:24:54;;;;;;;2.55;1.73;;;;;;;;;;5056622;28;20099;-59
2021/10/03 13:27:20;;;;;;;3.00;2.05;;;;;;;;;;5056139;28;20067;-60
2021/10/03 13:29:46;;;;;;;4.03;2.28;;;;;;;;;;5056062;28;20029;-59
2021/10/03 13:32:12;;;;;;;6.30;2.13;;;;;;;;;;5056447;28;20029;-59
2021/10/03 13:34:41;;;;;;;2.72;1.50;;;;;;;;;;5021802;28;20025;-59
2021/10/03 13:37:07;;;;;;;2.90;2.08;;;;;;;;;;5055948;28;20367;-59
2021/10/03 13:39:33;;;;;;;5.30;1.92;;;;;;;;;;5038363;28;20021;-59
2021/10/03 13:41:59;;;;;;;3.33;1.95;;;;;;;;;;5055245;28;20021;-59
2021/10/03 13:44:25;;;;;;;4.40;2.15;;;;;;;;;;5055402;28;20358;-59
2021/10/03 13:46:51;;;;;;;2.83;2.13;;;;;;;;;;5037626;28;20111;-59
2021/10/03 13:49:17;;;;;;;3.78;2.30;;;;;;;;;;5055284;28;20031;-59
2021/10/03 13:51:43;;;;;;;3.40;1.88;;;;;;;;;;5055931;28;20060;-59
2021/10/03 13:54:09;;;;;;;2.70;1.80;;;;;;;;;;5055845;28;20021;-59
2021/10/03 13:56:35;;;;;;;2.78;1.90;;;;;;;;;;5037598;28;20448;-59
2021/10/03 13:59:01;;;;;;;3.40;2.08;;;;;;;;;;5055442;28;20098;-60
2021/10/03 14:01:27;;;;;;;2.53;1.77;;;;;;;;;;5037587;28;20343;-60
2021/10/03 14:03:53;;;;;;;3.55;1.92;;;;;;;;;;5055627;28;20021;-60
2021/10/03 14:06:19;;;;;;;2.30;1.67;;;;;;;;;;5055413;28;20029;-60
2021/10/03 14:08:45;;;;;;;2.65;1.75;;;;;;;;;;5055088;28;20032;-58
2021/10/03 14:11:11;;;;;;;3.42;1.95;;;;;;;;;;5055317;28;20049;-59
2021/10/03 14:13:37;;;;;;;3.22;2.13;;;;;;;;;;5055260;28;20021;-59
2021/10/03 14:16:03;;;;;;;4.75;2.17;;;;;;;;;;5055737;28;20533;-59
2021/10/03 14:18:30;;;;;;;2.75;1.70;;;;;;;;;;5054671;28;20425;-59
2021/10/03 14:20:56;;;;;;;2.55;1.52;;;;;;;;;;5037489;28;20382;-60
2021/10/03 14:23:22;;;;;;;3.03;1.95;;;;;;;;;;5055447;28;20059;-59
2021/10/03 14:25:48;;;;;;;3.05;1.98;;;;;;;;;;5055440;28;20082;-59
2021/10/03 14:28:15;;;;;;;3.65;2.13;;;;;;;;;;5054622;28;20529;-60
2021/10/03 14:30:41;;;;;;;3.05;2.08;;;;;;;;;;5037545;28;20394;-60
2021/10/03 14:33:08;;;;;;;2.40;1.80;;;;;;;;;;5055121;28;20025;-60
2021/10/03 14:35:34;;;;;;;4.25;1.88;;;;;;;;;;5036840;28;20124;-60
2021/10/03 14:38:00;;;;;;;3.85;2.22;;;;;;;;;;5054321;28;20021;-59
2021/10/03 14:40:26;;;;;;;3.60;2.38;;;;;;;;;;5054349;28;20031;-60
2021/10/03 14:42:52;;;;;;;2.63;1.48;;;;;;;;;;5054623;28;20486;-59
2021/10/03 14:45:22;;;;;;;2.85;2.08;;;;;;;;;;5036344;28;20033;-60
2021/10/03 14:47:51;;;;;;;3.17;2.05;;;;;;;;;;5054313;28;20029;-60